Time;durP1;ratioP1;P1;durP2;ratioP2;P2;SDS_P1;SDS_P2;PMS_P1;PMS_P2;Temp;Humidity;BMP_temperature;BMP_pressure;BME280_temperature;BME280_humidity;BME280_pressure;Samples;Min_cycle;Max_cycle;Signal;HPM_P1;HPM_P2
2023/05/28 00:00:08;;;;;;;0.20;0.20;;;10.60;99.90;;;;;;5072433;28;20013;-61
2023/05/28 00:02:34;;;;;;;0.20;0.20;;;10.60;99.90;;;;;;5072399;28;20036;-46
2023/05/28 00:05:00;;;;;;;0.20;0.20;;;10.60;99.90;;;;;;5072401;28;20098;-57
2023/05/28 00:07:28;;;;;;;0.20;0.20;;;10.40;99.90;;;;;;5072451;28;20480;-49
2023/05/28 00:09:55;;;;;;;0.20;0.20;;;10.40;99.90;;;;;;5072065;28;20441;-42
2023/05/28 00:12:21;;;;;;;0.20;0.20;;;10.30;99.90;;;;;;5072193;28;20016;-55
2023/05/28 00:14:47;;;;;;;0.10;0.10;;;10.30;99.90;;;;;;5072224;28;20020;-56
2023/05/28 00:17:15;;;;;;;0.20;0.20;;;10.10;99.90;;;;;;5071945;28;20017;-58
2023/05/28 00:19:41;;;;;;;0.20;0.20;;;10.10;99.90;;;;;;5072134;28;20434;-49
2023/05/28 00:22:07;;;;;;;0.20;0.20;;;10.00;99.90;;;;;;5071939;28;20032;-54
2023/05/28 00:24:33;;;;;;;0.55;0.45;;;10.00;99.90;;;;;;5072073;28;20090;-56
2023/05/28 00:26:59;;;;;;;0.10;0.10;;;9.90;99.90;;;;;;5071898;28;20020;-56
2023/05/28 00:29:26;;;;;;;0.10;0.10;;;9.90;99.90;;;;;;5071887;28;20545;-49
2023/05/28 00:31:55;;;;;;;0.10;0.10;;;9.90;99.90;;;;;;5072044;28;20029;-40
2023/05/28 00:34:24;;;;;;;0.15;0.15;;;9.90;99.90;;;;;;5089264;28;20067;-40
2023/05/28 00:36:50;;;;;;;0.20;0.20;;;9.80;99.90;;;;;;5092048;28;20024;-45
2023/05/28 00:39:16;;;;;;;0.10;0.10;;;9.80;99.90;;;;;;5091698;28;20043;-44
2023/05/28 00:41:42;;;;;;;0.20;0.20;;;9.70;99.90;;;;;;5063951;28;20077;-48
2023/05/28 00:44:11;;;;;;;0.20;0.20;;;9.70;99.90;;;;;;5091730;28;20044;-54
2023/05/28 00:46:44;;;;;;;0.10;0.10;;;9.70;99.90;;;;;;5091753;28;20124;-53
2023/05/28 00:49:10;;;;;;;0.10;0.10;;;9.50;99.90;;;;;;5091718;28;20122;-44
2023/05/28 00:51:36;;;;;;;0.32;0.32;;;9.50;99.90;;;;;;5090388;28;20047;-57
2023/05/28 00:54:03;;;;;;;0.20;0.20;;;9.50;99.90;;;;;;5091649;28;20046;-49
2023/05/28 00:56:31;;;;;;;0.35;0.35;;;9.40;99.90;;;;;;5091761;28;20028;-49
2023/05/28 00:58:59;;;;;;;0.40;0.35;;;9.40;99.90;;;;;;5091646;28;20024;-45
2023/05/28 01:01:26;;;;;;;0.17;0.17;;;9.40;99.90;;;;;;5091549;28;20024;-52
2023/05/28 01:03:52;;;;;;;0.20;0.20;;;9.40;99.90;;;;;;5091629;28;20028;-51
2023/05/28 01:06:20;;;;;;;0.20;0.20;;;9.40;99.90;;;;;;5091511;28;20020;-43
2023/05/28 01:08:47;;;;;;;0.20;0.20;;;9.40;99.90;;;;;;5089660;28;20047;-41
2023/05/28 01:11:15;;;;;;;0.10;0.10;;;9.40;99.90;;;;;;5091582;28;20024;-40
2023/05/28 01:13:41;;;;;;;0.38;0.38;;;9.50;99.90;;;;;;5091514;28;20031;-42
2023/05/28 01:16:07;;;;;;;0.80;0.80;;;9.50;99.90;;;;;;5091170;28;20073;-40
2023/05/28 01:18:33;;;;;;;0.20;0.20;;;9.60;99.90;;;;;;5091204;28;20028;-48
2023/05/28 01:21:03;;;;;;;0.10;0.10;;;9.60;99.90;;;;;;5091184;28;20374;-40
2023/05/28 01:23:44;;;;;;;0.10;0.10;;;9.60;99.90;;;;;;5091239;28;20036;-44
2023/05/28 01:26:14;;;;;;;0.20;0.20;;;9.60;99.90;;;;;;5091142;28;20028;-40
2023/05/28 01:28:46;;;;;;;0.10;0.10;;;9.60;99.90;;;;;;5091030;28;20316;-42
2023/05/28 01:31:13;;;;;;;0.20;0.20;;;9.60;99.90;;;;;;5091096;28;20021;-49
2023/05/28 01:33:41;;;;;;;0.20;0.20;;;9.60;99.90;;;;;;5091091;28;20031;-43
2023/05/28 01:36:11;;;;;;;0.20;0.20;;;9.60;99.90;;;;;;5091290;28;20077;-46
2023/05/28 01:38:38;;;;;;;0.20;0.20;;;9.60;99.90;;;;;;5090951;28;20387;-48
2023/05/28 01:41:06;;;;;;;0.10;0.10;;;9.60;99.90;;;;;;5082373;28;20107;-48
2023/05/28 01:43:32;;;;;;;0.20;0.20;;;9.50;99.90;;;;;;5090685;28;20062;-54
2023/05/28 01:45:58;;;;;;;0.20;0.20;;;9.50;99.90;;;;;;5090812;28;20023;-44
2023/05/28 01:48:25;;;;;;;0.20;0.20;;;9.50;99.90;;;;;;5090901;28;20036;-56
2023/05/28 01:50:52;;;;;;;0.10;0.10;;;9.50;99.90;;;;;;5086236;28;20089;-52
2023/05/28 01:53:18;;;;;;;0.20;0.20;;;9.40;99.90;;;;;;5090760;28;20028;-45
2023/05/28 01:55:44;;;;;;;0.10;0.10;;;9.40;99.90;;;;;;5090878;28;20031;-47
2023/05/28 01:58:09;;;;;;;0.10;0.10;;;9.40;99.90;;;;;;5090846;28;20173;-52
2023/05/28 02:00:49;;;;;;;0.20;0.20;;;9.50;99.90;;;;;;5089427;28;20035;-55
2023/05/28 02:03:15;;;;;;;0.55;0.40;;;9.40;99.90;;;;;;5090707;28;20051;-46
2023/05/28 02:05:40;;;;;;;0.20;0.20;;;9.40;99.90;;;;;;5089375;28;20028;-42
2023/05/28 02:08:06;;;;;;;0.20;0.20;;;9.40;99.90;;;;;;5090791;28;20032;-42
2023/05/28 02:10:31;;;;;;;0.20;0.20;;;9.30;99.90;;;;;;5090573;28;20019;-41
2023/05/28 02:12:59;;;;;;;0.20;0.20;;;9.30;99.90;;;;;;5089473;28;20132;-53
2023/05/28 02:15:24;;;;;;;0.13;0.13;;;9.30;99.90;;;;;;5090676;28;20040;-47
2023/05/28 02:17:50;;;;;;;0.20;0.20;;;9.30;99.90;;;;;;5090425;28;20024;-42
2023/05/28 02:20:17;;;;;;;0.20;0.20;;;9.30;99.90;;;;;;5092574;28;20030;-52
2023/05/28 02:22:43;;;;;;;0.20;0.20;;;9.30;99.90;;;;;;5094576;28;20025;-54
2023/05/28 02:25:08;;;;;;;0.38;0.38;;;9.40;99.90;;;;;;5093414;28;20424;-42
2023/05/28 02:27:35;;;;;;;0.20;0.20;;;9.40;99.90;;;;;;5094453;28;20020;-41
2023/05/28 02:30:01;;;;;;;0.20;0.20;;;9.50;99.90;;;;;;5094698;28;20020;-50
2023/05/28 02:32:27;;;;;;;0.30;0.30;;;9.60;99.90;;;;;;5094387;28;20016;-52
2023/05/28 02:34:54;;;;;;;0.20;0.20;;;9.60;99.90;;;;;;5094454;28;20360;-52
2023/05/28 02:37:23;;;;;;;0.10;0.10;;;9.60;99.90;;;;;;5094387;28;20027;-51
2023/05/28 02:39:50;;;;;;;0.10;0.10;;;9.80;99.90;;;;;;5094178;28;20102;-45
2023/05/28 02:42:15;;;;;;;0.30;0.30;;;9.80;99.90;;;;;;5093872;28;20035;-40
2023/05/28 02:44:41;;;;;;;0.20;0.20;;;9.80;99.90;;;;;;5094136;28;20386;-55
2023/05/28 02:47:07;;;;;;;0.20;0.20;;;9.80;99.90;;;;;;5094134;28;20016;-42
2023/05/28 02:49:32;;;;;;;0.10;0.10;;;9.90;99.90;;;;;;5094006;28;20414;-42
2023/05/28 02:51:58;;;;;;;0.20;0.20;;;9.80;99.90;;;;;;5094088;28;20059;-52
2023/05/28 02:54:23;;;;;;;0.20;0.20;;;9.80;99.90;;;;;;5092677;28;20552;-44
2023/05/28 02:56:49;;;;;;;0.60;0.60;;;9.80;99.90;;;;;;5093904;28;20024;-51
2023/05/28 02:59:15;;;;;;;0.20;0.20;;;9.80;99.90;;;;;;5094131;28;20103;-53
2023/05/28 03:01:40;;;;;;;0.10;0.10;;;9.80;99.90;;;;;;5093773;28;20029;-46
2023/05/28 03:04:06;;;;;;;0.82;0.55;;;9.80;99.90;;;;;;5093910;28;20081;-54
2023/05/28 03:06:33;;;;;;;0.35;0.30;;;9.80;99.90;;;;;;5093633;28;20043;-49
2023/05/28 03:08:58;;;;;;;1.40;0.60;;;9.80;99.90;;;;;;5093708;28;20024;-56
2023/05/28 03:11:25;;;;;;;0.82;0.82;;;9.90;99.90;;;;;;5093723;28;20425;-49
2023/05/28 03:13:50;;;;;;;1.05;0.80;;;9.90;99.90;;;;;;5093757;28;20020;-56
2023/05/28 03:16:16;;;;;;;0.77;0.68;;;9.90;99.90;;;;;;5090677;28;20024;-59
2023/05/28 03:18:42;;;;;;;7.82;2.55;;;9.80;99.90;;;;;;5073399;28;20028;-49
2023/05/28 03:21:09;;;;;;;6.50;2.53;;;9.80;99.90;;;;;;5073064;28;20382;-58
2023/05/28 03:23:34;;;;;;;5.85;3.08;;;9.70;99.90;;;;;;5072987;28;20045;-48
2023/05/28 03:26:00;;;;;;;2.40;1.65;;;9.70;99.90;;;;;;5073159;28;20024;-53
2023/05/28 03:28:25;;;;;;;0.63;0.40;;;9.60;99.90;;;;;;5071956;28;20028;-49
2023/05/28 03:30:57;;;;;;;0.98;0.63;;;9.60;99.90;;;;;;5072668;28;20394;-54
2023/05/28 03:33:22;;;;;;;0.43;0.30;;;9.50;99.90;;;;;;5072821;28;20464;-52
2023/05/28 03:35:48;;;;;;;0.20;0.20;;;9.50;99.90;;;;;;5072871;28;20112;-42
2023/05/28 03:38:14;;;;;;;0.20;0.20;;;9.50;99.90;;;;;;5072708;28;20086;-48
2023/05/28 03:40:40;;;;;;;0.20;0.20;;;9.50;99.90;;;;;;5072854;28;20024;-50
2023/05/28 03:43:07;;;;;;;0.10;0.10;;;9.50;99.90;;;;;;5072498;28;20068;-51
2023/05/28 03:45:33;;;;;;;0.30;0.30;;;9.50;99.90;;;;;;5072751;28;20138;-40
2023/05/28 03:47:59;;;;;;;0.20;0.20;;;9.40;99.90;;;;;;5075004;28;20035;-41
2023/05/28 03:50:24;;;;;;;0.10;0.10;;;9.50;99.90;;;;;;5092965;28;20036;-42
2023/05/28 03:52:50;;;;;;;0.20;0.20;;;9.50;99.90;;;;;;5092903;28;20080;-41
2023/05/28 03:55:16;;;;;;;0.20;0.20;;;9.50;99.90;;;;;;5092820;28;20437;-41
2023/05/28 03:57:42;;;;;;;0.20;0.20;;;9.50;99.90;;;;;;5092958;28;20035;-41
2023/05/28 04:00:08;;;;;;;0.10;0.10;;;9.40;99.90;;;;;;5091581;28;20027;-42
2023/05/28 04:02:34;;;;;;;0.20;0.20;;;9.30;99.90;;;;;;5092740;28;20065;-45
2023/05/28 04:05:00;;;;;;;0.10;0.10;;;9.20;99.90;;;;;;5092634;28;20124;-48
2023/05/28 04:07:26;;;;;;;0.20;0.20;;;9.20;99.90;;;;;;5092633;28;20048;-52
2023/05/28 04:09:52;;;;;;;0.20;0.20;;;9.10;99.90;;;;;;5092767;28;20488;-50
2023/05/28 04:12:17;;;;;;;0.10;0.10;;;9.00;99.90;;;;;;5092564;28;20492;-56
2023/05/28 04:14:43;;;;;;;0.10;0.10;;;8.90;99.90;;;;;;5092419;28;20128;-53
2023/05/28 04:17:12;;;;;;;0.20;0.20;;;8.90;99.90;;;;;;5092480;28;20051;-44
2023/05/28 04:19:37;;;;;;;0.20;0.20;;;8.90;99.90;;;;;;5092489;28;20027;-48
2023/05/28 04:22:03;;;;;;;0.20;0.20;;;9.00;99.90;;;;;;5092245;28;20027;-55
2023/05/28 04:24:29;;;;;;;0.20;0.20;;;9.00;99.90;;;;;;5092282;28;20368;-46
2023/05/28 04:26:56;;;;;;;0.20;0.20;;;9.00;99.90;;;;;;5092296;28;20020;-52
2023/05/28 04:29:23;;;;;;;0.55;0.47;;;9.10;99.90;;;;;;5092424;28;20039;-47
2023/05/28 04:31:49;;;;;;;0.10;0.10;;;9.10;99.90;;;;;;5092346;28;20024;-48
2023/05/28 04:34:16;;;;;;;0.20;0.20;;;9.10;99.90;;;;;;5092107;28;20054;-40
2023/05/28 04:36:43;;;;;;;0.20;0.20;;;9.20;99.90;;;;;;5092128;28;20055;-47
2023/05/28 04:39:09;;;;;;;0.10;0.10;;;9.30;99.90;;;;;;5092060;28;20048;-51
2023/05/28 04:41:34;;;;;;;0.20;0.20;;;9.40;99.90;;;;;;5092178;28;20020;-43
2023/05/28 04:44:00;;;;;;;0.20;0.20;;;9.50;99.90;;;;;;5090744;28;20047;-38
2023/05/28 04:46:29;;;;;;;0.20;0.20;;;9.60;99.90;;;;;;5091874;28;20545;-60
2023/05/28 04:48:55;;;;;;;0.10;0.10;;;9.70;99.90;;;;;;5091873;28;20035;-43
2023/05/28 04:51:21;;;;;;;0.20;0.20;;;9.70;99.90;;;;;;5091663;28;20419;-49
2023/05/28 04:53:47;;;;;;;0.20;0.20;;;9.90;99.90;;;;;;5091725;28;20085;-54
2023/05/28 04:56:14;;;;;;;0.10;0.10;;;9.90;99.90;;;;;;5091823;28;20065;-52
2023/05/28 04:58:39;;;;;;;0.30;0.30;;;10.00;99.90;;;;;;5091894;28;20036;-39
2023/05/28 05:01:07;;;;;;;0.10;0.10;;;10.10;99.90;;;;;;5091603;28;20024;-44
2023/05/28 05:03:34;;;;;;;0.10;0.10;;;10.30;99.90;;;;;;5091394;28;20043;-50
2023/05/28 05:05:59;;;;;;;0.20;0.20;;;10.40;99.90;;;;;;5091596;28;20021;-39
2023/05/28 05:08:25;;;;;;;0.10;0.10;;;10.50;99.90;;;;;;5091360;28;20279;-40
2023/05/28 05:10:51;;;;;;;0.20;0.20;;;10.70;99.90;;;;;;5091750;28;20031;-43
2023/05/28 05:13:16;;;;;;;0.17;0.17;;;10.80;99.90;;;;;;5091490;28;20049;-44
2023/05/28 05:15:42;;;;;;;0.20;0.20;;;10.90;99.90;;;;;;5091397;28;20116;-47
2023/05/28 05:18:08;;;;;;;0.20;0.20;;;11.00;99.90;;;;;;5090108;28;20039;-45
2023/05/28 05:20:33;;;;;;;0.20;0.20;;;11.00;99.90;;;;;;5076887;28;20024;-49
2023/05/28 05:22:59;;;;;;;0.13;0.13;;;11.10;99.90;;;;;;5091420;28;20093;-59
2023/05/28 05:25:25;;;;;;;0.10;0.10;;;11.20;99.90;;;;;;5091160;28;20501;-51
2023/05/28 05:27:51;;;;;;;0.10;0.10;;;11.30;99.90;;;;;;5091356;28;20024;-54
2023/05/28 05:30:16;;;;;;;0.10;0.10;;;11.40;99.90;;;;;;5091109;28;20028;-41
2023/05/28 05:32:42;;;;;;;0.10;0.10;;;11.40;99.90;;;;;;5091217;28;20418;-57
2023/05/28 05:35:09;;;;;;;0.10;0.10;;;11.70;99.90;;;;;;5091068;28;20144;-47
2023/05/28 05:37:35;;;;;;;0.10;0.10;;;11.80;99.90;;;;;;5091195;28;20475;-54
2023/05/28 05:40:04;;;;;;;0.10;0.10;;;11.90;99.90;;;;;;5091050;28;20020;-55
2023/05/28 05:42:30;;;;;;;0.10;0.10;;;12.10;99.90;;;;;;5090796;28;20092;-50
2023/05/28 05:44:55;;;;;;;0.13;0.13;;;12.30;99.90;;;;;;5090931;28;20448;-53
2023/05/28 05:47:21;;;;;;;0.10;0.10;;;12.50;99.90;;;;;;5090871;28;20020;-59
2023/05/28 05:49:46;;;;;;;0.20;0.20;;;12.90;99.90;;;;;;5090868;28;20109;-59
2023/05/28 05:52:12;;;;;;;0.10;0.10;;;13.30;99.90;;;;;;5081391;28;20359;-54
2023/05/28 05:54:37;;;;;;;0.10;0.10;;;13.90;99.90;;;;;;5090602;28;20020;-45
2023/05/28 05:57:03;;;;;;;0.30;0.30;;;14.50;99.90;;;;;;5078021;28;20626;-55
2023/05/28 05:59:29;;;;;;;0.10;0.10;;;15.10;99.90;;;;;;5070541;28;20082;-44
2023/05/28 06:01:55;;;;;;;0.10;0.10;;;15.70;99.90;;;;;;5068807;28;20017;-45
2023/05/28 06:04:20;;;;;;;0.10;0.10;;;16.30;99.90;;;;;;5070364;28;20037;-52
2023/05/28 06:06:46;;;;;;;0.38;0.32;;;16.80;99.90;;;;;;5070327;28;20104;-56
2023/05/28 06:09:12;;;;;;;0.10;0.10;;;17.30;99.90;;;;;;5070604;28;20032;-53
2023/05/28 06:11:38;;;;;;;0.10;0.10;;;17.80;99.90;;;;;;5070188;28;20410;-49
2023/05/28 06:14:04;;;;;;;0.10;0.10;;;18.20;99.90;;;;;;5070446;28;20032;-57
2023/05/28 06:16:30;;;;;;;0.10;0.10;;;18.50;99.90;;;;;;5070380;28;20025;-42
2023/05/28 06:18:55;;;;;;;0.10;0.10;;;18.90;99.90;;;;;;5090211;28;20032;-43
2023/05/28 06:21:21;;;;;;;0.10;0.10;;;19.20;99.90;;;;;;5090736;28;20118;-41
2023/05/28 06:23:47;;;;;;;0.32;0.32;;;19.40;99.90;;;;;;5090371;28;20040;-42
2023/05/28 06:26:12;;;;;;;0.10;0.10;;;19.80;99.90;;;;;;5082084;28;20058;-46
2023/05/28 06:28:38;;;;;;;0.10;0.10;;;20.20;99.90;;;;;;5070262;28;20174;-40
2023/05/28 06:31:04;;;;;;;0.20;0.20;;;20.40;99.90;;;;;;5069602;28;20013;-47
2023/05/28 06:33:30;;;;;;;0.13;0.13;;;20.60;99.90;;;;;;5070269;28;20033;-55
2023/05/28 06:35:55;;;;;;;0.10;0.10;;;20.90;99.90;;;;;;5070184;28;20031;-55
2023/05/28 06:38:21;;;;;;;0.10;0.10;;;20.70;99.90;;;;;;5070371;28;20056;-43
2023/05/28 06:40:47;;;;;;;0.20;0.20;;;20.80;99.90;;;;;;5070198;28;20107;-50
2023/05/28 06:43:12;;;;;;;0.10;0.10;;;20.80;98.40;;;;;;5070037;28;20052;-45
2023/05/28 06:45:38;;;;;;;0.00;0.00;;;20.90;99.50;;;;;;5069733;28;20159;-40
2023/05/28 06:48:04;;;;;;;0.10;0.10;;;21.00;98.90;;;;;;5072995;28;20039;-41
2023/05/28 06:50:30;;;;;;;0.10;0.10;;;21.30;98.90;;;;;;5090490;28;20038;-52
2023/05/28 06:52:56;;;;;;;0.00;0.00;;;21.50;99.20;;;;;;5090484;28;20055;-56
2023/05/28 06:55:21;;;;;;;0.15;0.10;;;21.70;98.40;;;;;;5090217;28;20471;-43
2023/05/28 06:57:47;;;;;;;0.10;0.10;;;21.60;97.40;;;;;;5087922;28;20051;-47
2023/05/28 07:00:16;;;;;;;0.00;0.00;;;21.60;96.70;;;;;;5069938;28;20025;-52
2023/05/28 07:02:44;;;;;;;0.10;0.10;;;21.30;96.60;;;;;;5068766;28;20028;-47
2023/05/28 07:05:09;;;;;;;0.10;0.10;;;21.00;97.70;;;;;;5069523;28;20445;-48
2023/05/28 07:07:36;;;;;;;0.10;0.10;;;20.80;96.30;;;;;;5072123;28;20021;-47
2023/05/28 07:10:03;;;;;;;0.10;0.10;;;20.70;98.50;;;;;;5073195;28;20060;-54
2023/05/28 07:12:29;;;;;;;0.30;0.30;;;20.90;98.00;;;;;;5073008;28;20024;-54
2023/05/28 07:14:55;;;;;;;0.10;0.10;;;21.20;98.40;;;;;;5073357;28;20025;-54
2023/05/28 07:17:21;;;;;;;0.05;0.05;;;21.50;98.70;;;;;;5073421;28;20051;-58
2023/05/28 07:19:47;;;;;;;0.00;0.00;;;22.10;96.50;;;;;;5073338;28;20060;-45
2023/05/28 07:22:13;;;;;;;0.00;0.00;;;22.60;94.10;;;;;;5073314;28;20082;-43
2023/05/28 07:24:39;;;;;;;0.10;0.10;;;22.00;91.00;;;;;;5071406;28;20139;-52
2023/05/28 07:27:05;;;;;;;0.13;0.10;;;22.70;93.40;;;;;;5071348;28;20123;-41
2023/05/28 07:29:31;;;;;;;0.10;0.10;;;23.20;90.60;;;;;;5071127;28;20385;-49
2023/05/28 07:31:56;;;;;;;0.10;0.10;;;23.40;87.70;;;;;;5071152;28;20544;-49
2023/05/28 07:34:22;;;;;;;0.10;0.10;;;23.80;86.80;;;;;;5071114;28;20019;-47
2023/05/28 07:36:48;;;;;;;0.35;0.15;;;24.10;85.30;;;;;;5063362;28;20020;-45
2023/05/28 07:39:14;;;;;;;0.00;0.00;;;24.30;81.90;;;;;;5072102;28;20423;-51
2023/05/28 07:41:40;;;;;;;0.10;0.10;;;24.60;81.80;;;;;;5059609;28;20017;-50
2023/05/28 07:44:06;;;;;;;0.03;0.03;;;24.40;78.10;;;;;;5067679;28;20412;-50
2023/05/28 07:46:32;;;;;;;0.10;0.10;;;24.70;79.60;;;;;;5072978;28;20424;-57
2023/05/28 07:48:57;;;;;;;0.10;0.10;;;25.00;77.90;;;;;;5083484;28;20490;-42
2023/05/28 07:51:23;;;;;;;0.10;0.10;;;25.10;75.70;;;;;;5092824;28;20155;-51
2023/05/28 07:53:49;;;;;;;0.00;0.00;;;25.20;77.70;;;;;;5092938;28;20059;-53
2023/05/28 07:56:14;;;;;;;0.00;0.00;;;25.70;79.20;;;;;;5092796;28;20021;-59
2023/05/28 07:58:46;;;;;;;0.00;0.00;;;26.00;77.50;;;;;;5092865;28;20378;-43
2023/05/28 08:01:12;;;;;;;0.10;0.10;;;26.40;71.50;;;;;;5092757;28;20474;-45
2023/05/28 08:03:37;;;;;;;0.10;0.10;;;26.30;69.40;;;;;;5092719;28;20089;-41
2023/05/28 08:06:04;;;;;;;0.10;0.10;;;26.70;72.40;;;;;;5092943;28;20062;-45
2023/05/28 08:08:30;;;;;;;0.17;0.10;;;26.70;67.70;;;;;;5092334;28;20475;-43
2023/05/28 08:10:55;;;;;;;0.00;0.00;;;26.40;69.50;;;;;;5092661;28;20107;-50
2023/05/28 08:13:21;;;;;;;0.20;0.17;;;26.90;67.10;;;;;;5092403;28;20056;-43
2023/05/28 08:15:47;;;;;;;0.10;0.10;;;27.20;68.90;;;;;;5092594;28;20063;-44
2023/05/28 08:18:13;;;;;;;0.10;0.10;;;27.30;62.50;;;;;;5092588;28;20020;-41
2023/05/28 08:20:38;;;;;;;0.00;0.00;;;27.10;67.20;;;;;;5092336;28;20027;-45
2023/05/28 08:23:05;;;;;;;0.00;0.00;;;27.50;65.80;;;;;;5092630;28;20044;-54
2023/05/28 08:25:32;;;;;;;0.10;0.10;;;26.90;62.10;;;;;;5092185;28;20024;-50
2023/05/28 08:27:57;;;;;;;0.10;0.00;;;26.90;63.90;;;;;;5092208;28;20055;-57
2023/05/28 08:30:23;;;;;;;0.00;0.00;;;27.10;61.00;;;;;;5092189;28;20070;-55
2023/05/28 08:32:48;;;;;;;0.00;0.00;;;27.30;65.30;;;;;;5092241;28;20023;-42
2023/05/28 08:35:14;;;;;;;0.00;0.00;;;27.70;66.10;;;;;;5092268;28;20027;-54
2023/05/28 08:37:40;;;;;;;0.00;0.00;;;27.70;61.70;;;;;;5092105;28;20028;-60
2023/05/28 08:40:08;;;;;;;0.10;0.10;;;27.60;61.20;;;;;;5092247;28;20364;-52
2023/05/28 08:42:35;;;;;;;0.00;0.00;;;27.90;62.40;;;;;;5091732;28;20029;-49
2023/05/28 08:45:02;;;;;;;0.00;0.00;;;28.00;61.00;;;;;;5092386;28;20048;-51
2023/05/28 08:47:32;;;;;;;0.00;0.00;;;28.10;61.90;;;;;;5091874;28;20025;-59
2023/05/28 08:50:02;;;;;;;0.10;0.10;;;28.00;62.10;;;;;;5091838;28;20515;-53
2023/05/28 08:52:31;;;;;;;0.00;0.00;;;28.20;62.50;;;;;;5091935;28;20073;-48
2023/05/28 08:54:58;;;;;;;0.00;0.00;;;28.00;58.70;;;;;;5091705;28;20024;-49
2023/05/28 08:57:25;;;;;;;0.05;0.05;;;28.00;62.70;;;;;;5091892;28;20043;-42
2023/05/28 08:59:53;;;;;;;0.00;0.00;;;28.00;60.90;;;;;;5091731;28;20066;-52
2023/05/28 09:02:23;;;;;;;0.10;0.10;;;28.10;61.30;;;;;;5091642;28;20386;-45
2023/05/28 09:04:49;;;;;;;0.10;0.10;;;28.20;62.40;;;;;;5091522;28;20040;-48
2023/05/28 09:07:15;;;;;;;0.10;0.10;;;28.30;60.70;;;;;;5090224;28;20379;-47
2023/05/28 09:09:42;;;;;;;0.00;0.00;;;28.60;62.30;;;;;;5091564;28;20536;-44
2023/05/28 09:12:11;;;;;;;0.10;0.10;;;28.70;59.10;;;;;;5091558;28;20047;-48
2023/05/28 09:14:39;;;;;;;0.00;0.00;;;28.70;62.90;;;;;;5091516;28;20028;-41
2023/05/28 09:17:05;;;;;;;0.10;0.10;;;28.60;58.60;;;;;;5091328;28;20017;-51
2023/05/28 09:19:32;;;;;;;0.10;0.10;;;28.60;62.20;;;;;;5091348;28;20035;-47
2023/05/28 09:22:01;;;;;;;0.00;0.00;;;29.00;61.10;;;;;;5091202;28;20028;-43
2023/05/28 09:24:27;;;;;;;0.10;0.10;;;29.20;64.60;;;;;;5091005;28;20047;-52
2023/05/28 09:27:00;;;;;;;0.15;0.10;;;29.20;61.50;;;;;;5091333;28;20016;-43
2023/05/28 09:29:27;;;;;;;0.00;0.00;;;29.40;59.30;;;;;;5091088;28;20032;-41
2023/05/28 09:32:00;;;;;;;0.00;0.00;;;29.30;55.40;;;;;;5073494;28;20016;-43
2023/05/28 09:34:28;;;;;;;0.10;0.10;;;28.60;59.70;;;;;;5091291;28;20024;-41
2023/05/28 09:37:03;;;;;;;0.20;0.10;;;28.80;60.90;;;;;;5090233;28;20503;-40
2023/05/28 09:39:30;;;;;;;0.00;0.00;;;28.90;58.00;;;;;;5091028;28;20490;-41
2023/05/28 09:42:09;;;;;;;0.10;0.10;;;28.60;58.10;;;;;;5091092;28;20024;-41
2023/05/28 09:44:37;;;;;;;0.20;0.20;;;28.90;60.90;;;;;;5091058;28;20897;-50
2023/05/28 09:47:17;;;;;;;0.03;0.03;;;29.30;58.00;;;;;;5090966;28;20020;-41
2023/05/28 09:49:47;;;;;;;0.10;0.10;;;29.10;57.60;;;;;;5091030;28;20035;-49
2023/05/28 09:52:19;;;;;;;0.10;0.10;;;28.90;54.70;;;;;;5086859;28;20013;-54
2023/05/28 09:54:50;;;;;;;0.10;0.10;;;29.20;57.40;;;;;;5071834;28;20024;-42
2023/05/28 09:57:20;;;;;;;0.00;0.00;;;29.60;57.30;;;;;;5070665;28;20476;-47
2023/05/28 09:59:53;;;;;;;0.00;0.00;;;29.70;57.40;;;;;;5067097;28;20389;-41
2023/05/28 10:02:37;;;;;;;0.00;0.00;;;29.60;55.00;;;;;;5066491;28;20029;-40
2023/05/28 10:05:06;;;;;;;0.00;0.00;;;29.70;56.20;;;;;;5067628;28;20119;-43
2023/05/28 10:07:34;;;;;;;0.40;0.13;;;29.70;56.10;;;;;;5070836;28;20073;-41
2023/05/28 10:10:01;;;;;;;0.30;0.30;;;29.40;56.30;;;;;;5070393;28;20483;-40
2023/05/28 10:12:31;;;;;;;0.00;0.00;;;29.40;56.30;;;;;;5070180;28;20025;-42
2023/05/28 10:14:57;;;;;;;0.08;0.08;;;29.20;55.70;;;;;;5070377;28;20043;-40
2023/05/28 10:17:23;;;;;;;0.10;0.10;;;29.10;56.00;;;;;;5084773;28;20028;-42
2023/05/28 10:19:49;;;;;;;1.17;0.10;;;29.00;53.10;;;;;;5082073;28;20047;-42
2023/05/28 10:22:19;;;;;;;0.00;0.00;;;29.00;51.60;;;;;;5084796;28;20503;-41
2023/05/28 10:24:46;;;;;;;0.00;0.00;;;29.20;54.80;;;;;;5070403;28;20028;-41
2023/05/28 10:27:15;;;;;;;0.10;0.10;;;29.30;54.60;;;;;;5068899;28;20098;-42
2023/05/28 10:29:43;;;;;;;0.22;0.10;;;29.40;54.10;;;;;;5070243;28;20028;-49
2023/05/28 10:32:09;;;;;;;0.00;0.00;;;29.70;56.80;;;;;;5070373;28;20025;-41
2023/05/28 10:34:36;;;;;;;0.00;0.00;;;29.40;55.20;;;;;;5070411;28;20055;-40
2023/05/28 10:37:03;;;;;;;0.00;0.00;;;29.60;52.00;;;;;;5070378;28;20360;-42
2023/05/28 10:39:45;;;;;;;0.10;0.10;;;29.60;52.90;;;;;;5070545;28;20475;-41
2023/05/28 10:42:21;;;;;;;0.00;0.00;;;29.80;51.30;;;;;;5071941;28;20062;-41
2023/05/28 10:45:06;;;;;;;0.03;0.03;;;29.20;49.50;;;;;;5073781;28;20492;-43
2023/05/28 10:47:40;;;;;;;0.10;0.10;;;28.90;54.40;;;;;;5073853;28;20032;-40
2023/05/28 10:50:08;;;;;;;0.10;0.10;;;28.30;55.50;;;;;;5092884;28;20483;-39
2023/05/28 10:52:34;;;;;;;;;;;28.90;58.00;;;;;;5094584;28;20016;-39
2023/05/28 10:55:09;;;;;;;0.00;0.00;;;29.20;58.00;;;;;;5094164;28;19996;-51
2023/05/28 10:57:45;;;;;;;0.03;0.03;;;29.60;56.50;;;;;;5089384;28;20024;-44
2023/05/28 11:00:15;;;;;;;0.10;0.10;;;29.30;50.40;;;;;;5081307;28;20112;-41
2023/05/28 11:02:47;;;;;;;0.20;0.20;;;29.20;51.20;;;;;;5073628;28;20029;-39
2023/05/28 11:05:12;;;;;;;0.00;0.00;;;29.20;54.10;;;;;;5072524;28;20024;-41
2023/05/28 11:07:41;;;;;;;0.30;0.10;;;28.80;54.80;;;;;;5073693;28;20372;-40
2023/05/28 11:10:15;;;;;;;0.00;0.00;;;28.90;53.90;;;;;;5073647;28;20549;-42
2023/05/28 11:12:43;;;;;;;0.10;0.10;;;28.70;57.50;;;;;;5072101;28;20017;-42
2023/05/28 11:15:11;;;;;;;0.08;0.08;;;28.90;54.30;;;;;;5073536;28;20071;-41
2023/05/28 11:17:41;;;;;;;0.00;0.00;;;28.80;53.40;;;;;;5073153;28;20025;-41
2023/05/28 11:20:19;;;;;;;0.00;0.00;;;29.00;54.60;;;;;;5072025;28;20025;-41
2023/05/28 11:22:45;;;;;;;0.10;0.10;;;28.90;49.90;;;;;;5073171;28;20029;-41
2023/05/28 11:25:12;;;;;;;0.10;0.10;;;28.90;51.70;;;;;;5073242;28;20037;-40
2023/05/28 11:27:40;;;;;;;0.10;0.10;;;28.90;51.30;;;;;;5073478;28;20050;-40
2023/05/28 11:30:14;;;;;;;0.10;0.10;;;28.70;50.00;;;;;;5073438;28;20023;-41
2023/05/28 11:32:44;;;;;;;0.10;0.10;;;28.30;49.10;;;;;;5072563;28;20300;-41
2023/05/28 11:35:14;;;;;;;0.00;0.00;;;28.00;50.30;;;;;;5073205;28;20383;-41
2023/05/28 11:37:42;;;;;;;0.10;0.10;;;27.90;50.80;;;;;;5073044;28;20111;-41
2023/05/28 11:40:10;;;;;;;0.00;0.00;;;27.90;52.10;;;;;;5072139;28;20017;-40
2023/05/28 11:42:37;;;;;;;0.00;0.00;;;27.80;52.90;;;;;;5072862;28;20016;-48
2023/05/28 11:45:04;;;;;;;0.10;0.10;;;27.70;52.90;;;;;;5072823;28;20040;-41
2023/05/28 11:47:35;;;;;;;0.00;0.00;;;27.70;51.20;;;;;;5071506;28;20020;-42
2023/05/28 11:50:15;;;;;;;0.00;0.00;;;27.50;50.90;;;;;;5092301;28;20546;-49
2023/05/28 11:52:45;;;;;;;0.10;0.10;;;27.60;51.40;;;;;;5092704;28;20059;-42
2023/05/28 11:55:12;;;;;;;0.00;0.00;;;27.70;52.40;;;;;;5091851;28;20020;-40
2023/05/28 11:57:38;;;;;;;0.00;0.00;;;27.90;54.30;;;;;;5092841;28;20028;-43
2023/05/28 12:00:16;;;;;;;0.00;0.00;;;27.90;50.90;;;;;;5092844;28;20027;-41
2023/05/28 12:02:53;;;;;;;0.30;0.13;;;27.80;54.50;;;;;;5092750;28;20024;-40
2023/05/28 12:05:20;;;;;;;0.00;0.00;;;27.70;51.20;;;;;;5092938;28;20173;-41
2023/05/28 12:07:48;;;;;;;0.10;0.10;;;27.80;52.00;;;;;;5091676;28;20132;-42
2023/05/28 12:10:27;;;;;;;0.17;0.10;;;27.40;50.10;;;;;;5092760;28;20023;-46
2023/05/28 12:12:56;;;;;;;0.10;0.10;;;27.10;50.40;;;;;;5092912;28;20024;-40
2023/05/28 12:15:28;;;;;;;0.00;0.00;;;27.00;51.10;;;;;;5092517;28;20028;-45
2023/05/28 12:18:00;;;;;;;0.00;0.00;;;26.80;51.50;;;;;;5092716;28;20035;-40
2023/05/28 12:20:52;;;;;;;0.00;0.00;;;26.30;51.50;;;;;;5091046;28;20032;-42
2023/05/28 12:23:21;;;;;;;0.10;0.10;;;26.00;54.50;;;;;;5090177;28;20071;-40
2023/05/28 12:25:49;;;;;;;0.00;0.00;;;25.60;53.80;;;;;;5092514;28;20475;-43
2023/05/28 12:28:18;;;;;;;0.10;0.10;;;25.00;54.70;;;;;;5092518;28;20548;-50
2023/05/28 12:30:46;;;;;;;0.13;0.13;;;24.80;55.00;;;;;;5090939;28;20024;-44
2023/05/28 12:33:12;;;;;;;0.20;0.20;;;24.60;57.10;;;;;;5091193;28;20028;-44
2023/05/28 12:35:38;;;;;;;0.05;0.05;;;24.90;58.20;;;;;;5091931;28;20032;-51
2023/05/28 12:38:04;;;;;;;0.10;0.10;;;25.10;59.30;;;;;;5091081;28;20103;-42
2023/05/28 12:40:30;;;;;;;0.17;0.17;;;25.30;58.10;;;;;;5092409;28;20036;-43
2023/05/28 12:42:56;;;;;;;0.05;0.05;;;25.50;59.20;;;;;;5090788;28;20065;-47
2023/05/28 12:45:22;;;;;;;0.10;0.10;;;25.60;58.80;;;;;;5092152;28;20036;-47
2023/05/28 12:47:48;;;;;;;0.10;0.10;;;25.50;56.70;;;;;;5090551;28;20015;-54
2023/05/28 12:50:16;;;;;;;0.20;0.20;;;25.40;56.40;;;;;;5080343;28;20016;-44